sensor_id;sensor_type;location;lat;lon;timestamp;temperature;humidity
63051;SHT30;49136;47.416;19.402;2024-01-10T00:00:10;-7.10;93.74
63051;SHT30;49136;47.416;19.402;2024-01-10T00:02:36;-7.13;93.89
63051;SHT30;49136;47.416;19.402;2024-01-10T00:05:01;-7.18;94.06
63051;SHT30;49136;47.416;19.402;2024-01-10T00:07:27;-7.20;92.26
63051;SHT30;49136;47.416;19.402;2024-01-10T00:09:52;-7.13;91.92
63051;SHT30;49136;47.416;19.402;2024-01-10T00:12:17;-7.06;90.37
63051;SHT30;49136;47.416;19.402;2024-01-10T00:14:43;-7.03;89.62
63051;SHT30;49136;47.416;19.402;2024-01-10T00:17:08;-7.06;89.83
63051;SHT30;49136;47.416;19.402;2024-01-10T00:19:33;-7.11;90.31
63051;SHT30;49136;47.416;19.402;2024-01-10T00:21:59;-7.14;90.85
63051;SHT30;49136;47.416;19.402;2024-01-10T00:24:24;-7.23;91.64
63051;SHT30;49136;47.416;19.402;2024-01-10T00:26:50;-7.23;92.56
63051;SHT30;49136;47.416;19.402;2024-01-10T00:29:15;-7.30;93.70
63051;SHT30;49136;47.416;19.402;2024-01-10T00:31:41;-7.35;93.65
63051;SHT30;49136;47.416;19.402;2024-01-10T00:34:06;-7.42;93.56
63051;SHT30;49136;47.416;19.402;2024-01-10T00:36:31;-7.49;93.42
63051;SHT30;49136;47.416;19.402;2024-01-10T00:38:57;-7.51;93.64
63051;SHT30;49136;47.416;19.402;2024-01-10T00:41:22;-7.56;93.48
63051;SHT30;49136;47.416;19.402;2024-01-10T00:43:47;-7.63;93.76
63051;SHT30;49136;47.416;19.402;2024-01-10T00:46:13;-7.60;93.22
63051;SHT30;49136;47.416;19.402;2024-01-10T00:48:38;-7.69;92.67
63051;SHT30;49136;47.416;19.402;2024-01-10T00:51:04;-7.72;93.00
63051;SHT30;49136;47.416;19.402;2024-01-10T00:53:35;-7.75;93.33
63051;SHT30;49136;47.416;19.402;2024-01-10T00:56:06;-7.83;93.72
63051;SHT30;49136;47.416;19.402;2024-01-10T00:58:32;-7.84;93.86
63051;SHT30;49136;47.416;19.402;2024-01-10T01:00:58;-7.83;95.01
63051;SHT30;49136;47.416;19.402;2024-01-10T01:03:26;-7.86;95.29
63051;SHT30;49136;47.416;19.402;2024-01-10T01:05:52;-7.86;95.89
63051;SHT30;49136;47.416;19.402;2024-01-10T01:08:18;-7.87;96.20
63051;SHT30;49136;47.416;19.402;2024-01-10T01:10:43;-7.90;96.38
63051;SHT30;49136;47.416;19.402;2024-01-10T01:13:10;-7.91;96.76
63051;SHT30;49136;47.416;19.402;2024-01-10T01:15:36;-7.97;96.69
63051;SHT30;49136;47.416;19.402;2024-01-10T01:18:02;-7.98;97.00
63051;SHT30;49136;47.416;19.402;2024-01-10T01:20:28;-8.01;96.57
63051;SHT30;49136;47.416;19.402;2024-01-10T01:22:54;-8.04;97.09
63051;SHT30;49136;47.416;19.402;2024-01-10T01:25:19;-8.02;97.22
63051;SHT30;49136;47.416;19.402;2024-01-10T01:27:45;-8.08;97.25
63051;SHT30;49136;47.416;19.402;2024-01-10T01:30:10;-8.11;97.54
63051;SHT30;49136;47.416;19.402;2024-01-10T01:32:37;-8.10;97.60
63051;SHT30;49136;47.416;19.402;2024-01-10T01:35:03;-8.04;97.66
63051;SHT30;49136;47.416;19.402;2024-01-10T01:37:29;-8.00;97.38
63051;SHT30;49136;47.416;19.402;2024-01-10T01:39:55;-7.82;96.07
63051;SHT30;49136;47.416;19.402;2024-01-10T01:42:21;-7.91;96.50
63051;SHT30;49136;47.416;19.402;2024-01-10T01:44:47;-8.00;96.67
63051;SHT30;49136;47.416;19.402;2024-01-10T01:47:13;-8.02;96.68
63051;SHT30;49136;47.416;19.402;2024-01-10T01:49:40;-8.10;97.09
63051;SHT30;49136;47.416;19.402;2024-01-10T01:52:09;-8.11;98.08
63051;SHT30;49136;47.416;19.402;2024-01-10T01:54:35;-8.10;97.70
63051;SHT30;49136;47.416;19.402;2024-01-10T01:57:01;-8.15;97.32
63051;SHT30;49136;47.416;19.402;2024-01-10T01:59:27;-8.22;97.39
63051;SHT30;49136;47.416;19.402;2024-01-10T02:01:54;-8.21;97.95
63051;SHT30;49136;47.416;19.402;2024-01-10T02:04:20;-8.19;97.68
63051;SHT30;49136;47.416;19.402;2024-01-10T02:06:45;-8.21;97.43
63051;SHT30;49136;47.416;19.402;2024-01-10T02:09:11;-8.28;96.91
63051;SHT30;49136;47.416;19.402;2024-01-10T02:11:36;-8.28;97.68
63051;SHT30;49136;47.416;19.402;2024-01-10T02:14:02;-8.25;98.28
63051;SHT30;49136;47.416;19.402;2024-01-10T02:16:27;-8.26;97.21
63051;SHT30;49136;47.416;19.402;2024-01-10T02:18:53;-8.28;96.97
63051;SHT30;49136;47.416;19.402;2024-01-10T02:21:22;-8.30;97.06
63051;SHT30;49136;47.416;19.402;2024-01-10T02:23:48;-8.21;96.46
63051;SHT30;49136;47.416;19.402;2024-01-10T02:26:14;-8.25;97.28
63051;SHT30;49136;47.416;19.402;2024-01-10T02:28:40;-8.32;96.31
63051;SHT30;49136;47.416;19.402;2024-01-10T02:31:05;-8.30;94.56
63051;SHT30;49136;47.416;19.402;2024-01-10T02:33:32;-8.30;94.11
63051;SHT30;49136;47.416;19.402;2024-01-10T02:35:57;-8.32;93.60
63051;SHT30;49136;47.416;19.402;2024-01-10T02:38:23;-8.36;94.00
63051;SHT30;49136;47.416;19.402;2024-01-10T02:40:49;-8.35;93.59
63051;SHT30;49136;47.416;19.402;2024-01-10T02:43:15;-8.37;93.61
63051;SHT30;49136;47.416;19.402;2024-01-10T02:45:41;-8.40;94.84
63051;SHT30;49136;47.416;19.402;2024-01-10T02:48:06;-8.40;95.63
63051;SHT30;49136;47.416;19.402;2024-01-10T02:50:32;-8.43;95.81
63051;SHT30;49136;47.416;19.402;2024-01-10T02:52:57;-8.46;96.18
63051;SHT30;49136;47.416;19.402;2024-01-10T02:55:23;-8.46;96.12
63051;SHT30;49136;47.416;19.402;2024-01-10T02:57:48;-8.36;94.94
63051;SHT30;49136;47.416;19.402;2024-01-10T03:00:14;-8.18;92.83
63051;SHT30;49136;47.416;19.402;2024-01-10T03:02:39;-8.30;92.99
63051;SHT30;49136;47.416;19.402;2024-01-10T03:05:05;-8.40;93.99
63051;SHT30;49136;47.416;19.402;2024-01-10T03:07:30;-8.40;94.38
63051;SHT30;49136;47.416;19.402;2024-01-10T03:09:56;-8.47;94.95
63051;SHT30;49136;47.416;19.402;2024-01-10T03:12:21;-8.47;93.92
63051;SHT30;49136;47.416;19.402;2024-01-10T03:14:46;-8.52;94.93
63051;SHT30;49136;47.416;19.402;2024-01-10T03:17:12;-8.54;95.69
63051;SHT30;49136;47.416;19.402;2024-01-10T03:19:37;-8.60;96.01
63051;SHT30;49136;47.416;19.402;2024-01-10T03:22:07;-8.65;96.08
63051;SHT30;49136;47.416;19.402;2024-01-10T03:24:33;-8.70;96.74
63051;SHT30;49136;47.416;19.402;2024-01-10T03:26:59;-8.72;97.09
63051;SHT30;49136;47.416;19.402;2024-01-10T03:29:24;-8.70;97.44
63051;SHT30;49136;47.416;19.402;2024-01-10T03:31:50;-8.71;97.94
63051;SHT30;49136;47.416;19.402;2024-01-10T03:34:15;-8.72;98.12
63051;SHT30;49136;47.416;19.402;2024-01-10T03:36:43;-8.74;98.34
63051;SHT30;49136;47.416;19.402;2024-01-10T03:39:08;-8.76;98.78
63051;SHT30;49136;47.416;19.402;2024-01-10T03:41:34;-8.76;99.30
63051;SHT30;49136;47.416;19.402;2024-01-10T03:43:59;-8.74;99.41
63051;SHT30;49136;47.416;19.402;2024-01-10T03:46:25;-8.80;99.46
63051;SHT30;49136;47.416;19.402;2024-01-10T03:48:50;-8.76;99.98
63051;SHT30;49136;47.416;19.402;2024-01-10T03:51:18;-8.80;99.75
63051;SHT30;49136;47.416;19.402;2024-01-10T03:53:46;-8.80;99.94
63051;SHT30;49136;47.416;19.402;2024-01-10T03:56:12;-8.85;99.76
63051;SHT30;49136;47.416;19.402;2024-01-10T03:58:37;-8.91;98.61
63051;SHT30;49136;47.416;19.402;2024-01-10T04:01:07;-8.89;97.59
63051;SHT30;49136;47.416;19.402;2024-01-10T04:03:33;-8.89;97.06
63051;SHT30;49136;47.416;19.402;2024-01-10T04:05:59;-8.95;96.31
63051;SHT30;49136;47.416;19.402;2024-01-10T04:08:25;-8.94;96.86
63051;SHT30;49136;47.416;19.402;2024-01-10T04:10:50;-8.99;97.07
63051;SHT30;49136;47.416;19.402;2024-01-10T04:13:16;-9.02;97.34
63051;SHT30;49136;47.416;19.402;2024-01-10T04:15:41;-9.02;97.71
63051;SHT30;49136;47.416;19.402;2024-01-10T04:18:06;-8.99;98.28
63051;SHT30;49136;47.416;19.402;2024-01-10T04:20:32;-9.01;97.73
63051;SHT30;49136;47.416;19.402;2024-01-10T04:22:57;-8.99;97.17
63051;SHT30;49136;47.416;19.402;2024-01-10T04:25:23;-9.04;97.75
63051;SHT30;49136;47.416;19.402;2024-01-10T04:27:48;-9.06;98.06
63051;SHT30;49136;47.416;19.402;2024-01-10T04:30:15;-9.08;97.85
63051;SHT30;49136;47.416;19.402;2024-01-10T04:32:41;-9.08;97.63
63051;SHT30;49136;47.416;19.402;2024-01-10T04:35:06;-9.13;97.32
63051;SHT30;49136;47.416;19.402;2024-01-10T04:37:32;-8.99;97.38
63051;SHT30;49136;47.416;19.402;2024-01-10T04:39:57;-9.01;96.99
63051;SHT30;49136;47.416;19.402;2024-01-10T04:42:22;-9.01;96.89
63051;SHT30;49136;47.416;19.402;2024-01-10T04:44:48;-9.05;97.41
63051;SHT30;49136;47.416;19.402;2024-01-10T04:47:15;-9.05;97.70
63051;SHT30;49136;47.416;19.402;2024-01-10T04:49:40;-9.08;98.20
63051;SHT30;49136;47.416;19.402;2024-01-10T04:52:06;-9.08;98.28
63051;SHT30;49136;47.416;19.402;2024-01-10T04:54:31;-9.12;97.71
63051;SHT30;49136;47.416;19.402;2024-01-10T04:56:56;-9.12;98.48
63051;SHT30;49136;47.416;19.402;2024-01-10T04:59:22;-9.13;98.73
63051;SHT30;49136;47.416;19.402;2024-01-10T05:01:47;-9.12;98.18
63051;SHT30;49136;47.416;19.402;2024-01-10T05:04:13;-9.08;97.55
63051;SHT30;49136;47.416;19.402;2024-01-10T05:06:38;-9.08;97.28
63051;SHT30;49136;47.416;19.402;2024-01-10T05:09:03;-9.13;97.25
63051;SHT30;49136;47.416;19.402;2024-01-10T05:11:29;-9.13;97.89
63051;SHT30;49136;47.416;19.402;2024-01-10T05:13:55;-9.11;98.34
63051;SHT30;49136;47.416;19.402;2024-01-10T05:16:20;-9.15;98.81
63051;SHT30;49136;47.416;19.402;2024-01-10T05:18:46;-9.16;99.30
63051;SHT30;49136;47.416;19.402;2024-01-10T05:21:12;-9.19;98.93
63051;SHT30;49136;47.416;19.402;2024-01-10T05:23:38;-9.15;98.71
63051;SHT30;49136;47.416;19.402;2024-01-10T05:26:06;-9.12;97.70
63051;SHT30;49136;47.416;19.402;2024-01-10T05:28:31;-9.12;97.75
63051;SHT30;49136;47.416;19.402;2024-01-10T05:30:58;-9.09;97.58
63051;SHT30;49136;47.416;19.402;2024-01-10T05:33:25;-9.12;98.22
63051;SHT30;49136;47.416;19.402;2024-01-10T05:35:51;-9.16;98.60
63051;SHT30;49136;47.416;19.402;2024-01-10T05:38:17;-9.16;98.74
63051;SHT30;49136;47.416;19.402;2024-01-10T05:40:42;-9.13;98.77
63051;SHT30;49136;47.416;19.402;2024-01-10T05:43:08;-9.15;98.20
63051;SHT30;49136;47.416;19.402;2024-01-10T05:45:35;-9.19;97.56
63051;SHT30;49136;47.416;19.402;2024-01-10T05:48:01;-9.13;98.84
63051;SHT30;49136;47.416;19.402;2024-01-10T05:50:26;-9.18;98.78
63051;SHT30;49136;47.416;19.402;2024-01-10T05:52:53;-9.22;98.86
63051;SHT30;49136;47.416;19.402;2024-01-10T05:55:18;-9.24;99.00
63051;SHT30;49136;47.416;19.402;2024-01-10T05:57:44;-9.26;99.16
63051;SHT30;49136;47.416;19.402;2024-01-10T06:00:10;-9.26;99.31
63051;SHT30;49136;47.416;19.402;2024-01-10T06:02:37;-9.24;99.54
63051;SHT30;49136;47.416;19.402;2024-01-10T06:05:09;-9.27;99.48
63051;SHT30;49136;47.416;19.402;2024-01-10T06:07:39;-9.30;99.78
63051;SHT30;49136;47.416;19.402;2024-01-10T06:10:06;-9.31;99.86
63051;SHT30;49136;47.416;19.402;2024-01-10T06:12:32;-9.29;99.82
63051;SHT30;49136;47.416;19.402;2024-01-10T06:14:57;-9.36;99.49
63051;SHT30;49136;47.416;19.402;2024-01-10T06:17:23;-9.29;99.99
63051;SHT30;49136;47.416;19.402;2024-01-10T06:19:49;-9.26;99.99
63051;SHT30;49136;47.416;19.402;2024-01-10T06:22:15;-9.26;99.99
63051;SHT30;49136;47.416;19.402;2024-01-10T06:24:42;-9.26;99.99
63051;SHT30;49136;47.416;19.402;2024-01-10T06:27:07;-9.26;99.99
63051;SHT30;49136;47.416;19.402;2024-01-10T06:29:33;-9.26;99.99
63051;SHT30;49136;47.416;19.402;2024-01-10T06:31:59;-9.29;99.26
63051;SHT30;49136;47.416;19.402;2024-01-10T06:34:28;-9.22;99.78
63051;SHT30;49136;47.416;19.402;2024-01-10T06:36:54;-9.23;99.90
63051;SHT30;49136;47.416;19.402;2024-01-10T06:39:19;-9.23;99.99
63051;SHT30;49136;47.416;19.402;2024-01-10T06:41:48;-9.26;99.87
63051;SHT30;49136;47.416;19.402;2024-01-10T06:44:14;-9.20;99.99
63051;SHT30;49136;47.416;19.402;2024-01-10T06:46:39;-9.19;99.99
63051;SHT30;49136;47.416;19.402;2024-01-10T06:49:05;-9.16;99.99
63051;SHT30;49136;47.416;19.402;2024-01-10T06:51:32;-8.98;98.85
63051;SHT30;49136;47.416;19.402;2024-01-10T06:53:58;-8.98;98.58
63051;SHT30;49136;47.416;19.402;2024-01-10T06:56:32;-8.96;99.19
63051;SHT30;49136;47.416;19.402;2024-01-10T06:58:58;-8.94;99.46
63051;SHT30;49136;47.416;19.402;2024-01-10T07:01:24;-8.92;99.33
63051;SHT30;49136;47.416;19.402;2024-01-10T07:03:50;-8.91;99.34
63051;SHT30;49136;47.416;19.402;2024-01-10T07:06:16;-8.83;99.77
63051;SHT30;49136;47.416;19.402;2024-01-10T07:08:42;-8.77;99.80
63051;SHT30;49136;47.416;19.402;2024-01-10T07:11:08;-8.72;99.80
63051;SHT30;49136;47.416;19.402;2024-01-10T07:13:34;-8.65;99.71
63051;SHT30;49136;47.416;19.402;2024-01-10T07:15:59;-8.57;99.79
63051;SHT30;49136;47.416;19.402;2024-01-10T07:18:28;-8.45;99.85
63051;SHT30;49136;47.416;19.402;2024-01-10T07:20:54;-8.37;99.17
63051;SHT30;49136;47.416;19.402;2024-01-10T07:23:19;-8.28;99.34
63051;SHT30;49136;47.416;19.402;2024-01-10T07:25:44;-8.21;99.25
63051;SHT30;49136;47.416;19.402;2024-01-10T07:28:10;-8.07;98.10
63051;SHT30;49136;47.416;19.402;2024-01-10T07:30:35;-8.00;98.08
63051;SHT30;49136;47.416;19.402;2024-01-10T07:33:01;-7.91;97.39
63051;SHT30;49136;47.416;19.402;2024-01-10T07:35:26;-7.82;96.50
63051;SHT30;49136;47.416;19.402;2024-01-10T07:37:52;-7.64;95.48
63051;SHT30;49136;47.416;19.402;2024-01-10T07:40:18;-7.53;95.04
63051;SHT30;49136;47.416;19.402;2024-01-10T07:42:43;-7.39;94.23
63051;SHT30;49136;47.416;19.402;2024-01-10T07:45:09;-7.10;93.61
63051;SHT30;49136;47.416;19.402;2024-01-10T07:47:35;-6.92;92.97
63051;SHT30;49136;47.416;19.402;2024-01-10T07:50:06;-6.79;92.09
63051;SHT30;49136;47.416;19.402;2024-01-10T07:52:35;-6.57;91.14
63051;SHT30;49136;47.416;19.402;2024-01-10T07:55:00;-6.49;90.82
63051;SHT30;49136;47.416;19.402;2024-01-10T07:57:26;-6.41;90.47
63051;SHT30;49136;47.416;19.402;2024-01-10T07:59:52;-6.33;91.12
63051;SHT30;49136;47.416;19.402;2024-01-10T08:02:18;-6.23;91.02
63051;SHT30;49136;47.416;19.402;2024-01-10T08:04:43;-6.10;90.51
63051;SHT30;49136;47.416;19.402;2024-01-10T08:07:09;-5.98;88.32
63051;SHT30;49136;47.416;19.402;2024-01-10T08:09:35;-5.75;86.38
63051;SHT30;49136;47.416;19.402;2024-01-10T08:12:02;-5.64;87.07
63051;SHT30;49136;47.416;19.402;2024-01-10T08:14:27;-5.53;85.93
63051;SHT30;49136;47.416;19.402;2024-01-10T08:16:53;-5.29;84.19
63051;SHT30;49136;47.416;19.402;2024-01-10T08:19:20;-5.09;84.70
63051;SHT30;49136;47.416;19.402;2024-01-10T08:21:45;-4.80;82.84
63051;SHT30;49136;47.416;19.402;2024-01-10T08:24:10;-4.66;81.58
63051;SHT30;49136;47.416;19.402;2024-01-10T08:26:36;-4.53;81.43
63051;SHT30;49136;47.416;19.402;2024-01-10T08:29:04;-4.38;84.19
63051;SHT30;49136;47.416;19.402;2024-01-10T08:31:29;-4.21;84.97
63051;SHT30;49136;47.416;19.402;2024-01-10T08:33:55;-4.03;84.64
63051;SHT30;49136;47.416;19.402;2024-01-10T08:36:22;-3.87;83.60
63051;SHT30;49136;47.416;19.402;2024-01-10T08:38:49;-3.66;82.58
63051;SHT30;49136;47.416;19.402;2024-01-10T08:41:18;-3.48;82.02
63051;SHT30;49136;47.416;19.402;2024-01-10T08:43:46;-3.27;81.42
63051;SHT30;49136;47.416;19.402;2024-01-10T08:46:11;-3.06;82.41
63051;SHT30;49136;47.416;19.402;2024-01-10T08:48:36;-2.79;81.88
63051;SHT30;49136;47.416;19.402;2024-01-10T08:51:02;-2.53;81.43
63051;SHT30;49136;47.416;19.402;2024-01-10T08:53:28;-2.25;80.34
63051;SHT30;49136;47.416;19.402;2024-01-10T08:55:53;-2.01;77.47
63051;SHT30;49136;47.416;19.402;2024-01-10T08:58:19;-1.74;76.77
63051;SHT30;49136;47.416;19.402;2024-01-10T09:00:44;-1.66;73.43
63051;SHT30;49136;47.416;19.402;2024-01-10T09:03:09;-1.29;75.20
63051;SHT30;49136;47.416;19.402;2024-01-10T09:05:35;-1.38;66.97
63051;SHT30;49136;47.416;19.402;2024-01-10T09:08:00;-1.22;66.91
63051;SHT30;49136;47.416;19.402;2024-01-10T09:10:26;-1.19;64.37
63051;SHT30;49136;47.416;19.402;2024-01-10T09:12:53;-1.05;66.02
63051;SHT30;49136;47.416;19.402;2024-01-10T09:15:18;-1.09;61.71
63051;SHT30;49136;47.416;19.402;2024-01-10T09:17:44;-0.65;65.57
63051;SHT30;49136;47.416;19.402;2024-01-10T09:20:11;-0.80;61.41
63051;SHT30;49136;47.416;19.402;2024-01-10T09:22:37;-0.36;63.57
63051;SHT30;49136;47.416;19.402;2024-01-10T09:25:04;-0.20;63.06
63051;SHT30;49136;47.416;19.402;2024-01-10T09:27:31;-0.10;61.45
63051;SHT30;49136;47.416;19.402;2024-01-10T09:29:57;0.01;61.85
63051;SHT30;49136;47.416;19.402;2024-01-10T09:32:22;0.32;63.66
63051;SHT30;49136;47.416;19.402;2024-01-10T09:34:48;0.28;59.66
63051;SHT30;49136;47.416;19.402;2024-01-10T09:37:13;0.42;59.68
63051;SHT30;49136;47.416;19.402;2024-01-10T09:39:38;0.87;64.05
63051;SHT30;49136;47.416;19.402;2024-01-10T09:42:04;0.94;60.48
63051;SHT30;49136;47.416;19.402;2024-01-10T09:44:30;0.84;58.51
63051;SHT30;49136;47.416;19.402;2024-01-10T09:46:55;0.72;56.84
63051;SHT30;49136;47.416;19.402;2024-01-10T09:49:21;1.35;65.97
63051;SHT30;49136;47.416;19.402;2024-01-10T09:51:48;1.61;63.30
63051;SHT30;49136;47.416;19.402;2024-01-10T09:54:15;1.84;63.16
63051;SHT30;49136;47.416;19.402;2024-01-10T09:56:41;1.93;58.50
63051;SHT30;49136;47.416;19.402;2024-01-10T09:59:07;2.11;60.03
63051;SHT30;49136;47.416;19.402;2024-01-10T10:01:39;2.20;61.00
63051;SHT30;49136;47.416;19.402;2024-01-10T10:04:04;2.44;59.46
63051;SHT30;49136;47.416;19.402;2024-01-10T10:06:31;1.93;54.42
63051;SHT30;49136;47.416;19.402;2024-01-10T10:08:56;2.30;60.48
63051;SHT30;49136;47.416;19.402;2024-01-10T10:11:22;2.06;54.94
63051;SHT30;49136;47.416;19.402;2024-01-10T10:13:47;2.30;59.29
63051;SHT30;49136;47.416;19.402;2024-01-10T10:16:12;2.71;62.11
63051;SHT30;49136;47.416;19.402;2024-01-10T10:18:39;2.64;58.68
63051;SHT30;49136;47.416;19.402;2024-01-10T10:21:10;2.43;55.40
63051;SHT30;49136;47.416;19.402;2024-01-10T10:23:42;2.55;57.07
63051;SHT30;49136;47.416;19.402;2024-01-10T10:26:17;2.71;55.05
63051;SHT30;49136;47.416;19.402;2024-01-10T10:28:47;3.23;61.08
63051;SHT30;49136;47.416;19.402;2024-01-10T10:31:12;3.26;57.56
63051;SHT30;49136;47.416;19.402;2024-01-10T10:33:38;3.61;58.94
63051;SHT30;49136;47.416;19.402;2024-01-10T10:36:04;3.86;58.73
63051;SHT30;49136;47.416;19.402;2024-01-10T10:38:30;3.86;56.66
63051;SHT30;49136;47.416;19.402;2024-01-10T10:40:58;3.79;56.53
63051;SHT30;49136;47.416;19.402;2024-01-10T10:43:25;3.74;59.11
63051;SHT30;49136;47.416;19.402;2024-01-10T10:45:50;3.82;59.79
63051;SHT30;49136;47.416;19.402;2024-01-10T10:48:18;3.76;56.83
63051;SHT30;49136;47.416;19.402;2024-01-10T10:50:53;3.96;60.10
63051;SHT30;49136;47.416;19.402;2024-01-10T10:53:21;4.31;61.21
63051;SHT30;49136;47.416;19.402;2024-01-10T10:55:50;4.41;59.91
63051;SHT30;49136;47.416;19.402;2024-01-10T10:58:17;4.34;57.00
63051;SHT30;49136;47.416;19.402;2024-01-10T11:00:43;4.30;57.13
63051;SHT30;49136;47.416;19.402;2024-01-10T11:03:10;4.46;58.68
63051;SHT30;49136;47.416;19.402;2024-01-10T11:05:40;4.68;59.79
63051;SHT30;49136;47.416;19.402;2024-01-10T11:08:07;4.44;55.91
63051;SHT30;49136;47.416;19.402;2024-01-10T11:10:35;4.44;57.13
63051;SHT30;49136;47.416;19.402;2024-01-10T11:21:30;3.97;53.38
63051;SHT30;49136;47.416;19.402;2024-01-10T11:24:01;4.07;55.81
63051;SHT30;49136;47.416;19.402;2024-01-10T11:26:27;4.38;57.89
63051;SHT30;49136;47.416;19.402;2024-01-10T11:28:52;4.53;58.38
63051;SHT30;49136;47.416;19.402;2024-01-10T11:31:29;4.22;52.70
63051;SHT30;49136;47.416;19.402;2024-01-10T11:33:56;4.11;54.99
63051;SHT30;49136;47.416;19.402;2024-01-10T11:36:22;4.51;59.88
63051;SHT30;49136;47.416;19.402;2024-01-10T11:46:43;4.51;55.25
63051;SHT30;49136;47.416;19.402;2024-01-10T11:49:09;4.63;58.22
63051;SHT30;49136;47.416;19.402;2024-01-10T11:51:38;4.77;56.95
63051;SHT30;49136;47.416;19.402;2024-01-10T11:54:03;4.88;56.23
63051;SHT30;49136;47.416;19.402;2024-01-10T11:56:38;4.68;54.94
63051;SHT30;49136;47.416;19.402;2024-01-10T11:59:08;4.86;52.96
63051;SHT30;49136;47.416;19.402;2024-01-10T12:01:38;4.88;54.29
63051;SHT30;49136;47.416;19.402;2024-01-10T12:04:04;4.95;55.58
63051;SHT30;49136;47.416;19.402;2024-01-10T12:06:30;4.68;51.59
63051;SHT30;49136;47.416;19.402;2024-01-10T12:08:56;4.79;55.93
63051;SHT30;49136;47.416;19.402;2024-01-10T12:11:22;4.97;53.84
63051;SHT30;49136;47.416;19.402;2024-01-10T12:13:47;4.84;50.76
63051;SHT30;49136;47.416;19.402;2024-01-10T12:16:13;4.66;51.32
63051;SHT30;49136;47.416;19.402;2024-01-10T12:18:43;4.65;53.72
63051;SHT30;49136;47.416;19.402;2024-01-10T12:21:09;4.66;54.85
63051;SHT30;49136;47.416;19.402;2024-01-10T12:23:36;4.80;54.17
63051;SHT30;49136;47.416;19.402;2024-01-10T12:26:02;4.76;55.29
63051;SHT30;49136;47.416;19.402;2024-01-10T12:28:30;4.30;51.65
63051;SHT30;49136;47.416;19.402;2024-01-10T12:30:55;4.38;56.26
63051;SHT30;49136;47.416;19.402;2024-01-10T12:33:24;4.51;54.45
63051;SHT30;49136;47.416;19.402;2024-01-10T12:36:10;4.27;50.22
63051;SHT30;49136;47.416;19.402;2024-01-10T12:38:38;4.18;53.65
63051;SHT30;49136;47.416;19.402;2024-01-10T12:41:04;4.35;55.54
63051;SHT30;49136;47.416;19.402;2024-01-10T12:43:33;3.96;51.34
63051;SHT30;49136;47.416;19.402;2024-01-10T12:48:30;4.31;54.58
63051;SHT30;49136;47.416;19.402;2024-01-10T12:50:57;3.81;52.83
63051;SHT30;49136;47.416;19.402;2024-01-10T12:53:22;4.00;56.62
63051;SHT30;49136;47.416;19.402;2024-01-10T12:55:48;4.11;55.80
63051;SHT30;49136;47.416;19.402;2024-01-10T12:58:13;4.09;56.51
63051;SHT30;49136;47.416;19.402;2024-01-10T13:00:39;4.10;57.46
63051;SHT30;49136;47.416;19.402;2024-01-10T13:03:05;4.09;56.49
63051;SHT30;49136;47.416;19.402;2024-01-10T13:05:31;3.81;54.44
63051;SHT30;49136;47.416;19.402;2024-01-10T13:07:56;3.75;56.03
63051;SHT30;49136;47.416;19.402;2024-01-10T13:10:22;3.74;58.05
63051;SHT30;49136;47.416;19.402;2024-01-10T13:12:47;3.75;59.03
63051;SHT30;49136;47.416;19.402;2024-01-10T13:15:13;3.76;57.06
63051;SHT30;49136;47.416;19.402;2024-01-10T13:17:38;3.89;57.18
63051;SHT30;49136;47.416;19.402;2024-01-10T13:20:05;3.97;56.54
63051;SHT30;49136;47.416;19.402;2024-01-10T13:22:31;3.86;56.29
63051;SHT30;49136;47.416;19.402;2024-01-10T13:24:56;3.83;58.32
63051;SHT30;49136;47.416;19.402;2024-01-10T13:27:22;3.40;53.60
63051;SHT30;49136;47.416;19.402;2024-01-10T13:29:47;3.28;55.26
63051;SHT30;49136;47.416;19.402;2024-01-10T13:32:13;3.22;57.33
63051;SHT30;49136;47.416;19.402;2024-01-10T13:34:38;3.24;59.17
63051;SHT30;49136;47.416;19.402;2024-01-10T13:37:03;3.22;60.25
63051;SHT30;49136;47.416;19.402;2024-01-10T13:39:30;3.22;58.45
63051;SHT30;49136;47.416;19.402;2024-01-10T13:41:57;3.19;58.88
63051;SHT30;49136;47.416;19.402;2024-01-10T13:44:22;3.07;59.35
63051;SHT30;49136;47.416;19.402;2024-01-10T13:46:48;3.12;60.72
63051;SHT30;49136;47.416;19.402;2024-01-10T13:49:15;3.03;59.32
63051;SHT30;49136;47.416;19.402;2024-01-10T13:51:40;2.99;60.13
63051;SHT30;49136;47.416;19.402;2024-01-10T13:54:06;2.85;60.53
63051;SHT30;49136;47.416;19.402;2024-01-10T13:56:31;2.72;60.26
63051;SHT30;49136;47.416;19.402;2024-01-10T13:58:57;2.74;60.85
63051;SHT30;49136;47.416;19.402;2024-01-10T14:01:22;2.74;60.94
63051;SHT30;49136;47.416;19.402;2024-01-10T14:03:48;2.68;60.21
63051;SHT30;49136;47.416;19.402;2024-01-10T14:06:13;2.57;61.66
63051;SHT30;49136;47.416;19.402;2024-01-10T14:08:39;2.48;61.41
63051;SHT30;49136;47.416;19.402;2024-01-10T14:11:06;2.40;61.54
63051;SHT30;49136;47.416;19.402;2024-01-10T14:13:32;2.30;61.88
63051;SHT30;49136;47.416;19.402;2024-01-10T14:15:57;2.23;62.39
63051;SHT30;49136;47.416;19.402;2024-01-10T14:18:23;2.13;63.01
63051;SHT30;49136;47.416;19.402;2024-01-10T14:20:48;1.97;62.76
63051;SHT30;49136;47.416;19.402;2024-01-10T14:23:14;1.91;62.85
63051;SHT30;49136;47.416;19.402;2024-01-10T14:25:39;1.82;63.34
63051;SHT30;49136;47.416;19.402;2024-01-10T14:28:05;1.73;64.28
63051;SHT30;49136;47.416;19.402;2024-01-10T14:30:30;1.59;63.97
63051;SHT30;49136;47.416;19.402;2024-01-10T14:32:57;1.47;64.50
63051;SHT30;49136;47.416;19.402;2024-01-10T14:35:24;1.39;65.39
63051;SHT30;49136;47.416;19.402;2024-01-10T14:37:49;1.26;65.29
63051;SHT30;49136;47.416;19.402;2024-01-10T14:40:15;1.15;65.94
63051;SHT30;49136;47.416;19.402;2024-01-10T14:42:40;0.98;66.66
63051;SHT30;49136;47.416;19.402;2024-01-10T14:45:06;0.91;67.00
63051;SHT30;49136;47.416;19.402;2024-01-10T14:47:33;0.76;67.23
63051;SHT30;49136;47.416;19.402;2024-01-10T14:50:00;0.66;67.94
63051;SHT30;49136;47.416;19.402;2024-01-10T14:52:26;0.49;67.90
63051;SHT30;49136;47.416;19.402;2024-01-10T14:54:52;0.37;67.84
63051;SHT30;49136;47.416;19.402;2024-01-10T14:57:18;0.19;68.38
63051;SHT30;49136;47.416;19.402;2024-01-10T14:59:43;0.07;69.25
63051;SHT30;49136;47.416;19.402;2024-01-10T15:02:09;-0.18;69.94
63051;SHT30;49136;47.416;19.402;2024-01-10T15:04:41;-0.41;71.17
63051;SHT30;49136;47.416;19.402;2024-01-10T15:07:07;-0.59;72.75
63051;SHT30;49136;47.416;19.402;2024-01-10T15:09:33;-0.81;74.16
63051;SHT30;49136;47.416;19.402;2024-01-10T15:12:02;-0.98;76.07
63051;SHT30;49136;47.416;19.402;2024-01-10T15:14:28;-1.12;76.26
63051;SHT30;49136;47.416;19.402;2024-01-10T15:16:54;-1.24;76.40
63051;SHT30;49136;47.416;19.402;2024-01-10T15:19:21;-1.40;77.69
63051;SHT30;49136;47.416;19.402;2024-01-10T15:21:47;-1.55;78.82
63051;SHT30;49136;47.416;19.402;2024-01-10T15:24:12;-1.63;78.96
63051;SHT30;49136;47.416;19.402;2024-01-10T15:26:38;-1.82;79.60
63051;SHT30;49136;47.416;19.402;2024-01-10T15:29:03;-1.95;79.93
63051;SHT30;49136;47.416;19.402;2024-01-10T15:31:29;-2.10;80.03